createdAt,value
2018-12-04T00:01:00.090Z,13.50
2018-12-04T00:03:27.626Z,13.50
2018-12-04T00:05:55.079Z,13.50
2018-12-04T00:08:22.554Z,13.40
2018-12-04T00:10:50.026Z,13.40
2018-12-04T00:13:17.495Z,13.50
2018-12-04T00:15:44.958Z,13.50
2018-12-04T00:18:12.429Z,13.40
2018-12-04T00:20:39.889Z,13.40
2018-12-04T00:23:07.368Z,13.40
2018-12-04T00:25:34.825Z,13.30
2018-12-04T00:28:02.316Z,13.40
2018-12-04T00:30:29.772Z,13.30
2018-12-04T00:32:57.292Z,13.30
2018-12-04T00:35:24.749Z,13.30
2018-12-04T00:37:52.284Z,13.30
2018-12-04T00:40:20.770Z,13.40
2018-12-04T00:42:48.245Z,13.30
2018-12-04T00:45:15.705Z,13.40
2018-12-04T00:47:43.190Z,13.40
2018-12-04T00:50:10.733Z,13.40
2018-12-04T00:52:38.207Z,13.30
2018-12-04T00:55:06.029Z,13.20
2018-12-04T00:57:33.492Z,13.20
2018-12-04T01:00:00.948Z,13.20
2018-12-04T01:02:28.426Z,13.20
2018-12-04T01:04:55.885Z,13.30
2018-12-04T01:07:23.352Z,13.40
2018-12-04T01:09:50.838Z,13.40
2018-12-04T01:12:18.361Z,13.40
2018-12-04T01:14:45.860Z,13.30
2018-12-04T01:17:13.316Z,13.30
2018-12-04T01:19:40.898Z,13.30
2018-12-04T01:22:08.349Z,13.40
2018-12-04T01:24:35.834Z,13.40
2018-12-04T01:27:03.284Z,13.40
2018-12-04T01:29:30.753Z,13.40
2018-12-04T01:31:58.209Z,13.40
2018-12-04T01:34:25.714Z,13.40
2018-12-04T01:36:53.234Z,13.40
2018-12-04T01:39:20.696Z,13.30
2018-12-04T01:41:48.175Z,13.30
2018-12-04T01:44:15.669Z,13.40
2018-12-04T01:46:43.122Z,13.50
2018-12-04T01:49:10.617Z,13.50
2018-12-04T01:51:38.082Z,13.50
2018-12-04T01:54:05.553Z,13.60
2018-12-04T01:56:33.042Z,13.50
2018-12-04T01:59:00.526Z,13.50
2018-12-04T02:01:27.978Z,13.50
2018-12-04T02:03:55.450Z,13.60
2018-12-04T02:06:22.921Z,13.60
2018-12-04T02:08:50.373Z,13.60
2018-12-04T02:11:17.845Z,13.60
2018-12-04T02:13:45.304Z,13.70
2018-12-04T02:16:12.769Z,13.60
2018-12-04T02:18:40.553Z,13.70
2018-12-04T02:21:08.029Z,13.60
2018-12-04T02:23:35.481Z,13.60
2018-12-04T02:26:03.005Z,13.50
2018-12-04T02:28:45.306Z,13.50
2018-12-04T02:31:12.785Z,13.50
2018-12-04T02:33:40.249Z,13.40
2018-12-04T02:36:07.758Z,13.40
2018-12-04T02:38:35.205Z,13.40
2018-12-04T02:41:02.690Z,13.40
2018-12-04T02:43:30.165Z,13.30
2018-12-04T02:45:57.637Z,13.30
2018-12-04T02:48:25.082Z,13.30
2018-12-04T02:50:52.590Z,13.20
2018-12-04T02:53:20.082Z,13.10
2018-12-04T02:55:47.552Z,13.00
2018-12-04T02:58:15.097Z,12.90
2018-12-04T03:00:42.573Z,12.90
2018-12-04T03:03:10.039Z,12.90
2018-12-04T03:05:37.550Z,12.80
2018-12-04T03:08:05.015Z,12.80
2018-12-04T03:10:32.492Z,12.80
2018-12-04T03:12:59.959Z,12.70
2018-12-04T03:15:27.419Z,12.70
2018-12-04T03:17:54.910Z,12.70
2018-12-04T03:20:22.406Z,12.60
2018-12-04T03:22:49.878Z,12.60
2018-12-04T03:25:17.340Z,12.60
2018-12-04T03:27:44.819Z,12.50
2018-12-04T03:30:12.296Z,12.50
2018-12-04T03:32:39.893Z,12.40
2018-12-04T03:35:07.395Z,12.40
2018-12-04T03:37:34.994Z,12.40
2018-12-04T03:40:02.834Z,12.50
2018-12-04T03:42:30.338Z,12.60
2018-12-04T03:44:57.849Z,12.60
2018-12-04T03:47:25.372Z,12.60
2018-12-04T03:49:53.552Z,12.60
2018-12-04T03:52:21.053Z,12.60
2018-12-04T03:54:48.509Z,12.50
2018-12-04T03:57:15.977Z,12.50
2018-12-04T03:59:43.451Z,12.50
2018-12-04T04:02:10.939Z,12.40
2018-12-04T04:04:38.421Z,12.40
2018-12-04T04:07:05.893Z,12.40
2018-12-04T04:09:33.346Z,12.30
2018-12-04T04:12:00.828Z,12.40
2018-12-04T04:14:28.307Z,12.40
2018-12-04T04:16:55.782Z,12.50
2018-12-04T04:19:23.243Z,12.50
2018-12-04T04:21:50.755Z,12.60
2018-12-04T04:24:18.218Z,12.70
2018-12-04T04:26:45.706Z,12.80
2018-12-04T04:29:13.166Z,12.90
2018-12-04T04:31:40.641Z,13.00
2018-12-04T04:34:08.125Z,13.10
2018-12-04T04:36:35.596Z,13.20
2018-12-04T04:39:05.114Z,13.30
2018-12-04T04:41:32.574Z,13.30
2018-12-04T04:44:00.064Z,13.30
2018-12-04T04:46:27.638Z,13.40
2018-12-04T04:48:55.109Z,13.50
2018-12-04T04:51:22.567Z,13.50
2018-12-04T04:53:50.043Z,13.50
2018-12-04T04:56:17.551Z,13.50
2018-12-04T04:58:45.042Z,13.50
2018-12-04T05:01:12.505Z,13.50
2018-12-04T05:03:39.981Z,13.50
2018-12-04T05:06:07.495Z,13.50
2018-12-04T05:08:35.043Z,13.50
2018-12-04T05:11:02.502Z,13.50
2018-12-04T05:13:29.972Z,13.50
2018-12-04T05:15:57.417Z,13.50
2018-12-04T05:18:24.911Z,13.50
2018-12-04T05:20:52.372Z,13.50
2018-12-04T05:23:19.862Z,13.50
2018-12-04T05:25:47.317Z,13.50
2018-12-04T05:28:14.803Z,13.50
2018-12-04T05:30:42.319Z,13.50
2018-12-04T05:33:09.775Z,13.50
2018-12-04T05:35:37.273Z,13.40
2018-12-04T05:38:04.763Z,13.40
2018-12-04T05:40:32.247Z,13.30
2018-12-04T05:42:59.702Z,13.20
2018-12-04T05:45:27.181Z,13.10
2018-12-04T05:47:54.651Z,13.10
2018-12-04T05:50:22.118Z,13.00
2018-12-04T05:55:50.979Z,12.70
2018-12-04T05:58:18.440Z,12.50
2018-12-04T06:00:45.912Z,12.40
2018-12-04T06:03:13.367Z,12.30
2018-12-04T06:05:40.883Z,12.40
2018-12-04T06:08:08.384Z,12.40
2018-12-04T06:10:35.862Z,12.50
2018-12-04T06:13:03.350Z,12.50
2018-12-04T06:15:30.871Z,12.50
2018-12-04T06:17:58.380Z,12.60
2018-12-04T06:20:25.911Z,12.60
2018-12-04T06:22:53.362Z,12.70
2018-12-04T06:25:20.852Z,12.70
2018-12-04T06:27:48.347Z,12.80
2018-12-04T06:30:15.832Z,12.80
2018-12-04T06:32:43.284Z,12.60
2018-12-04T06:35:10.845Z,12.50
2018-12-04T06:37:38.298Z,12.50
2018-12-04T06:40:05.900Z,12.40
2018-12-04T06:42:33.366Z,12.30
2018-12-04T06:45:00.840Z,12.30
2018-12-04T06:47:28.293Z,12.20
2018-12-04T06:49:55.781Z,12.20
2018-12-04T06:52:23.825Z,12.30
2018-12-04T06:54:51.310Z,12.30
2018-12-04T06:57:18.908Z,12.30
2018-12-04T06:59:46.389Z,12.40
2018-12-04T07:02:13.856Z,12.40
2018-12-04T07:04:41.416Z,12.50
2018-12-04T07:07:08.933Z,12.50
2018-12-04T07:09:36.417Z,12.50
2018-12-04T07:12:03.938Z,12.40
2018-12-04T07:14:31.458Z,12.30
2018-12-04T07:16:59.027Z,12.20
2018-12-04T07:19:26.653Z,12.10
2018-12-04T07:21:54.187Z,12.10
2018-12-04T07:24:21.640Z,11.90
2018-12-04T07:26:49.130Z,11.90
2018-12-04T07:29:16.707Z,11.80
2018-12-04T07:31:44.229Z,11.90
2018-12-04T07:34:11.697Z,11.80
2018-12-04T07:36:39.172Z,11.90
2018-12-04T07:39:07.484Z,11.90
2018-12-04T07:41:34.968Z,11.90
2018-12-04T07:44:02.504Z,12.00
2018-12-04T07:46:30.014Z,11.90
2018-12-04T07:48:57.508Z,11.90
2018-12-04T07:51:24.999Z,11.90
2018-12-04T07:53:52.472Z,11.90
2018-12-04T07:56:19.947Z,11.80
2018-12-04T07:58:47.405Z,11.80
2018-12-04T08:01:14.933Z,11.70
2018-12-04T08:03:42.409Z,11.70
2018-12-04T08:06:10.151Z,11.70
2018-12-04T08:08:37.615Z,11.70
2018-12-04T08:11:05.095Z,11.60
2018-12-04T08:13:32.551Z,11.60
2018-12-04T08:16:00.039Z,11.60
2018-12-04T08:18:27.507Z,11.60
2018-12-04T08:20:55.001Z,11.70
2018-12-04T08:23:22.531Z,11.70
2018-12-04T08:25:50.083Z,11.70
2018-12-04T08:28:17.560Z,11.70
2018-12-04T08:30:45.038Z,11.70
2018-12-04T08:33:12.507Z,11.70
2018-12-04T08:35:40.003Z,11.80
2018-12-04T08:38:07.523Z,11.80
2018-12-04T08:40:35.571Z,11.80
2018-12-04T08:43:03.066Z,11.80
2018-12-04T08:45:30.551Z,11.90
2018-12-04T08:47:58.510Z,11.90
2018-12-04T08:50:26.100Z,12.00
2018-12-04T08:52:53.592Z,12.10
2018-12-04T08:55:21.154Z,12.10
2018-12-04T08:57:48.625Z,12.20
2018-12-04T09:00:16.102Z,12.20
2018-12-04T09:02:43.639Z,12.20
2018-12-04T09:05:11.119Z,12.20
2018-12-04T09:07:38.707Z,12.10
2018-12-04T09:10:06.719Z,12.10
2018-12-04T09:12:34.203Z,12.10
2018-12-04T09:15:01.733Z,12.20
2018-12-04T09:17:29.212Z,12.20
2018-12-04T09:19:56.682Z,12.30
2018-12-04T09:22:24.166Z,12.40
2018-12-04T09:24:51.708Z,12.40
2018-12-04T09:27:19.300Z,12.40
2018-12-04T09:29:46.936Z,12.50
2018-12-04T09:32:14.545Z,12.50
2018-12-04T09:34:42.075Z,12.60
2018-12-04T09:37:09.578Z,12.60
2018-12-04T09:39:37.114Z,12.70
2018-12-04T09:42:04.734Z,12.80
2018-12-04T09:44:32.178Z,12.80
2018-12-04T09:46:59.652Z,12.90
2018-12-04T09:49:27.160Z,12.90
2018-12-04T09:51:54.635Z,13.00
2018-12-04T09:54:22.085Z,13.00
2018-12-04T09:56:49.559Z,13.10
2018-12-04T09:59:18.892Z,13.10
2018-12-04T10:01:47.039Z,13.10
2018-12-04T10:04:14.509Z,13.10
2018-12-04T10:06:42.102Z,13.20
2018-12-04T10:09:09.833Z,13.20
2018-12-04T10:11:37.461Z,13.20
2018-12-04T10:14:04.996Z,13.20
2018-12-04T10:16:32.488Z,13.20
2018-12-04T10:18:59.951Z,13.30
2018-12-04T10:21:27.433Z,13.30
2018-12-04T10:23:54.895Z,13.40
2018-12-04T10:26:22.377Z,13.40
2018-12-04T10:28:49.836Z,13.40
2018-12-04T10:31:17.365Z,13.40
2018-12-04T10:33:44.851Z,13.40
2018-12-04T10:36:12.347Z,13.30
2018-12-04T10:38:39.814Z,13.30
2018-12-04T10:41:07.330Z,13.40
2018-12-04T10:43:34.863Z,13.30
2018-12-04T10:46:03.338Z,13.40
2018-12-04T10:48:30.923Z,13.30
2018-12-04T10:50:58.438Z,13.20
2018-12-04T10:53:26.116Z,13.20
2018-12-04T10:55:53.579Z,13.10
2018-12-04T10:58:21.152Z,13.10
2018-12-04T11:00:54.313Z,13.00
2018-12-04T11:03:23.735Z,13.00
2018-12-04T11:05:51.205Z,13.00
2018-12-04T11:08:18.689Z,12.90
2018-12-04T11:10:46.156Z,12.90
2018-12-04T11:13:13.815Z,12.90
2018-12-04T11:15:41.294Z,13.00
2018-12-04T11:18:08.769Z,13.00
2018-12-04T11:20:36.275Z,13.10
2018-12-04T11:23:03.870Z,13.20
2018-12-04T11:25:31.348Z,13.40
2018-12-04T11:27:58.822Z,13.60
2018-12-04T11:30:26.294Z,13.80
2018-12-04T11:32:53.862Z,14.00
2018-12-04T11:35:21.347Z,14.10
2018-12-04T11:37:48.869Z,14.20
2018-12-04T11:40:16.364Z,14.40
2018-12-04T11:42:43.859Z,14.50
2018-12-04T11:45:11.470Z,14.50
2018-12-04T11:47:39.022Z,14.60
2018-12-04T11:50:06.823Z,14.70
2018-12-04T11:52:34.492Z,14.70
2018-12-04T11:55:02.140Z,14.70
2018-12-04T11:57:29.833Z,14.60
2018-12-04T11:59:57.416Z,14.60
2018-12-04T12:02:24.931Z,14.60
2018-12-04T12:04:52.456Z,14.60
2018-12-04T12:07:20.659Z,14.60
2018-12-04T12:09:48.417Z,14.70
2018-12-04T12:12:16.207Z,14.70
2018-12-04T12:14:43.953Z,14.80
2018-12-04T12:17:11.765Z,14.80
2018-12-04T12:19:39.316Z,14.70
2018-12-04T12:22:08.207Z,14.80
2018-12-04T12:24:35.702Z,14.90
2018-12-04T12:27:03.248Z,15.00
2018-12-04T12:29:30.757Z,15.10
2018-12-04T12:31:58.218Z,15.20
2018-12-04T12:34:25.746Z,15.20
2018-12-04T12:36:53.242Z,15.30
2018-12-04T12:39:20.737Z,15.30
2018-12-04T12:41:48.197Z,15.30
2018-12-04T12:44:15.700Z,15.30
2018-12-04T12:46:43.234Z,15.40
2018-12-04T12:49:10.832Z,15.30
2018-12-04T12:51:38.392Z,15.20
2018-12-04T12:54:05.996Z,15.00
2018-12-04T12:56:33.484Z,14.80
2018-12-04T12:59:01.023Z,14.70
2018-12-04T13:01:28.482Z,14.60
2018-12-04T13:03:55.960Z,14.50
2018-12-04T13:06:23.482Z,14.50
2018-12-04T13:08:51.019Z,14.50
2018-12-04T13:11:18.511Z,14.50
2018-12-04T13:13:46.008Z,14.50
2018-12-04T13:16:13.551Z,14.40
2018-12-04T13:18:41.097Z,14.40
2018-12-04T13:21:08.611Z,14.40
2018-12-04T13:23:36.147Z,14.40
2018-12-04T13:26:03.668Z,14.30
2018-12-04T13:28:31.390Z,14.20
2018-12-04T13:30:59.010Z,14.10
2018-12-04T13:33:26.917Z,14.10
2018-12-04T13:35:54.427Z,14.00
2018-12-04T13:38:21.916Z,14.00
2018-12-04T13:40:49.410Z,13.90
2018-12-04T13:43:17.846Z,13.80
2018-12-04T13:45:45.314Z,13.80
2018-12-04T13:48:12.854Z,13.80
2018-12-04T13:50:40.476Z,13.80
2018-12-04T13:53:07.959Z,13.80
2018-12-04T13:55:35.521Z,13.70
2018-12-04T13:58:03.016Z,13.70
2018-12-04T14:00:30.535Z,13.70
2018-12-04T14:02:58.104Z,13.70
2018-12-04T14:05:25.668Z,13.70
2018-12-04T14:07:53.221Z,13.70
2018-12-04T14:10:20.821Z,13.70
2018-12-04T14:12:48.375Z,13.70
2018-12-04T14:15:15.914Z,13.80
2018-12-04T14:17:43.466Z,13.80
2018-12-04T14:20:11.053Z,13.70
2018-12-04T14:22:38.536Z,13.70
2018-12-04T14:25:06.372Z,13.60
2018-12-04T14:27:33.957Z,13.40
2018-12-04T14:30:01.428Z,13.20
2018-12-04T14:32:28.902Z,13.00
2018-12-04T14:34:56.397Z,12.80
2018-12-04T14:37:24.069Z,12.70
2018-12-04T14:39:51.633Z,12.60
2018-12-04T14:42:19.120Z,12.50
2018-12-04T14:44:46.726Z,12.40
2018-12-04T14:47:14.189Z,12.30
2018-12-04T14:49:41.776Z,12.30
2018-12-04T14:52:09.376Z,12.30
2018-12-04T14:54:36.930Z,12.30
2018-12-04T14:57:04.389Z,12.30
2018-12-04T14:59:31.866Z,12.30
2018-12-04T15:01:59.414Z,12.30
2018-12-04T15:04:26.967Z,12.30
2018-12-04T15:06:54.451Z,12.30
2018-12-04T15:09:22.160Z,12.20
2018-12-04T15:11:49.773Z,12.20
2018-12-04T15:14:17.242Z,12.10
2018-12-04T15:16:44.723Z,12.00
2018-12-04T15:19:12.233Z,12.00
2018-12-04T15:21:39.815Z,12.00
2018-12-04T15:24:08.008Z,12.00
2018-12-04T15:26:35.636Z,12.00
2018-12-04T15:29:03.265Z,12.00
2018-12-04T15:31:30.865Z,11.90
2018-12-04T15:33:58.470Z,11.80
2018-12-04T15:36:26.075Z,11.70
2018-12-04T15:38:53.700Z,11.60
2018-12-04T15:41:21.277Z,11.60
2018-12-04T15:43:48.727Z,11.50
2018-12-04T15:46:16.267Z,11.50
2018-12-04T15:48:43.912Z,11.40
2018-12-04T15:51:11.500Z,11.40
2018-12-04T15:53:39.072Z,11.30
2018-12-04T15:56:06.692Z,11.20
2018-12-04T15:58:34.159Z,11.10
2018-12-04T16:01:01.710Z,11.00
2018-12-04T16:03:29.173Z,11.00
2018-12-04T16:05:56.667Z,11.00
2018-12-04T16:08:24.130Z,11.00
2018-12-04T16:10:51.619Z,10.90
2018-12-04T16:13:19.074Z,10.90
2018-12-04T16:15:46.680Z,10.80
2018-12-04T16:18:14.387Z,10.80
2018-12-04T16:20:41.900Z,10.80
2018-12-04T16:23:09.381Z,10.70
2018-12-04T16:25:36.999Z,10.70
2018-12-04T16:28:04.535Z,10.60
2018-12-04T16:30:32.090Z,10.50
2018-12-04T16:32:59.543Z,10.40
2018-12-04T16:35:27.188Z,10.30
2018-12-04T16:37:54.638Z,10.30
2018-12-04T16:40:22.149Z,10.30
2018-12-04T16:42:49.618Z,10.30
2018-12-04T16:45:17.110Z,10.30
2018-12-04T16:47:44.574Z,10.30
2018-12-04T16:50:12.211Z,10.20
2018-12-04T16:52:39.856Z,10.10
2018-12-04T16:55:07.440Z,10.00
2018-12-04T16:57:34.907Z,9.90
2018-12-04T17:00:02.432Z,9.80
2018-12-04T17:02:29.898Z,9.80
2018-12-04T17:04:57.353Z,9.70
2018-12-04T17:07:24.817Z,9.70
2018-12-04T17:09:52.262Z,9.60
2018-12-04T17:12:19.854Z,9.50
2018-12-04T17:14:47.384Z,9.50
2018-12-04T17:17:14.923Z,9.40
2018-12-04T17:19:42.399Z,9.40
2018-12-04T17:22:09.891Z,9.30
2018-12-04T17:24:37.348Z,9.30
2018-12-04T17:27:04.881Z,9.30
2018-12-04T17:29:32.331Z,9.20
2018-12-04T17:31:59.857Z,9.20
2018-12-04T17:34:27.899Z,9.20
2018-12-04T17:36:55.376Z,9.10
2018-12-04T17:39:22.835Z,9.10
2018-12-04T17:41:50.352Z,9.10
2018-12-04T17:44:17.886Z,9.10
2018-12-04T17:46:45.351Z,9.10
2018-12-04T17:49:12.828Z,9.00
2018-12-04T17:51:40.295Z,9.00
2018-12-04T17:54:07.862Z,8.90
2018-12-04T17:56:35.367Z,8.80
2018-12-04T17:59:02.822Z,8.70
2018-12-04T18:01:30.311Z,8.70
2018-12-04T18:03:57.772Z,8.70
2018-12-04T18:06:25.312Z,8.70
2018-12-04T18:08:52.758Z,8.70
2018-12-04T18:11:21.782Z,8.70
2018-12-04T18:13:49.230Z,8.60
2018-12-04T18:16:16.701Z,8.60
2018-12-04T18:18:44.159Z,8.60
2018-12-04T18:21:11.687Z,8.60
2018-12-04T18:23:39.142Z,8.60
2018-12-04T18:26:06.611Z,8.60
2018-12-04T18:28:34.082Z,8.60
2018-12-04T18:31:01.546Z,8.60
2018-12-04T18:33:29.009Z,8.60
2018-12-04T18:35:56.475Z,8.50
2018-12-04T18:38:23.946Z,8.50
2018-12-04T18:40:51.396Z,8.50
2018-12-04T18:43:18.870Z,8.40
2018-12-04T18:45:46.344Z,8.30
2018-12-04T18:48:13.840Z,8.20
2018-12-04T18:50:41.322Z,8.20
2018-12-04T18:53:08.818Z,8.20
2018-12-04T18:55:36.279Z,8.20
2018-12-04T18:58:03.815Z,8.20
2018-12-04T19:00:31.313Z,8.20
2018-12-04T19:02:58.905Z,8.20
2018-12-04T19:05:26.407Z,8.20
2018-12-04T19:07:53.936Z,8.20
2018-12-04T19:10:21.402Z,8.20
2018-12-04T19:12:49.338Z,8.20
2018-12-04T19:15:16.831Z,8.20
2018-12-04T19:17:44.362Z,8.20
2018-12-04T19:20:11.935Z,8.20
2018-12-04T19:22:39.482Z,8.20
2018-12-04T19:25:06.955Z,8.10
2018-12-04T19:27:34.553Z,8.10
2018-12-04T19:30:03.079Z,8.00
2018-12-04T19:32:30.598Z,8.10
2018-12-04T19:34:58.059Z,8.00
2018-12-04T19:37:25.533Z,8.00
2018-12-04T19:39:52.987Z,7.90
2018-12-04T19:42:20.502Z,7.90
2018-12-04T19:44:47.958Z,7.90
2018-12-04T19:47:15.450Z,7.90
2018-12-04T19:49:43.563Z,7.90
2018-12-04T19:52:11.028Z,7.90
2018-12-04T19:54:38.543Z,7.80
2018-12-04T19:57:06.017Z,7.80
2018-12-04T19:59:34.026Z,7.70
2018-12-04T20:02:02.449Z,7.70
2018-12-04T20:04:29.958Z,7.80
2018-12-04T20:06:57.408Z,7.70
2018-12-04T20:09:24.877Z,7.70
2018-12-04T20:11:52.348Z,7.70
2018-12-04T20:14:19.958Z,7.70
2018-12-04T20:16:47.418Z,7.70
2018-12-04T20:19:14.901Z,7.70
2018-12-04T20:21:42.368Z,7.70
2018-12-04T20:24:09.846Z,7.70
2018-12-04T20:26:37.324Z,7.70
2018-12-04T20:29:05.404Z,7.60
2018-12-04T20:31:32.858Z,7.60
2018-12-04T20:34:00.326Z,7.60
2018-12-04T20:36:27.855Z,7.60
2018-12-04T20:38:55.653Z,7.60
2018-12-04T20:41:23.114Z,7.60
2018-12-04T20:43:50.582Z,7.50
2018-12-04T20:46:18.087Z,7.40
2018-12-04T20:48:45.553Z,7.40
2018-12-04T20:51:13.080Z,7.40
2018-12-04T20:53:40.574Z,7.50
2018-12-04T20:56:08.026Z,7.40
2018-12-04T20:58:35.506Z,7.40
2018-12-04T21:01:03.017Z,7.30
2018-12-04T21:03:31.332Z,7.20
2018-12-04T21:05:58.796Z,7.20
2018-12-04T21:08:26.276Z,7.20
2018-12-04T21:10:53.722Z,7.20
2018-12-04T21:13:21.254Z,7.10
2018-12-04T21:15:48.707Z,7.10
2018-12-04T21:18:16.173Z,7.10
2018-12-04T21:20:49.480Z,7.10
2018-12-04T21:23:16.937Z,7.00
2018-12-04T21:25:44.455Z,7.10
2018-12-04T21:28:17.638Z,7.10
2018-12-04T21:30:51.023Z,7.10
2018-12-04T21:33:24.091Z,7.10
2018-12-04T21:35:57.424Z,7.10
2018-12-04T21:38:30.609Z,7.10
2018-12-04T21:41:01.003Z,7.00
2018-12-04T21:43:34.174Z,7.00
2018-12-04T21:46:07.362Z,6.90
2018-12-04T21:48:35.361Z,6.90
2018-12-04T21:51:03.382Z,6.90
2018-12-04T21:53:31.068Z,6.80
2018-12-04T21:55:58.567Z,6.80
2018-12-04T21:58:26.025Z,6.80
2018-12-04T22:00:53.549Z,6.80
2018-12-04T22:03:21.006Z,6.80
2018-12-04T22:05:48.530Z,6.80
2018-12-04T22:08:15.993Z,6.80
2018-12-04T22:10:43.522Z,6.80
2018-12-04T22:13:11.033Z,6.90
2018-12-04T22:15:38.505Z,6.80
2018-12-04T22:18:05.999Z,6.90
2018-12-04T22:20:33.549Z,6.90
2018-12-04T22:23:01.007Z,6.90
2018-12-04T22:25:28.579Z,7.00
2018-12-04T22:27:56.030Z,6.90
2018-12-04T22:30:23.519Z,6.90
2018-12-04T22:32:50.969Z,6.90
2018-12-04T22:35:18.434Z,7.00
2018-12-04T22:37:45.891Z,7.00
2018-12-04T22:40:13.435Z,7.10
2018-12-04T22:42:40.912Z,7.10
2018-12-04T22:45:15.505Z,7.10
2018-12-04T22:47:43.274Z,7.10
2018-12-04T22:50:10.879Z,7.10
2018-12-04T22:52:38.351Z,7.00
2018-12-04T22:55:05.841Z,7.10
2018-12-04T22:57:33.343Z,7.00
2018-12-04T23:00:00.801Z,7.00
2018-12-04T23:02:28.333Z,7.00
2018-12-04T23:04:55.783Z,7.00
2018-12-04T23:07:23.255Z,7.00
2018-12-04T23:09:50.791Z,7.00
2018-12-04T23:12:18.303Z,7.00
2018-12-04T23:14:45.819Z,7.00
2018-12-04T23:17:13.326Z,7.00
2018-12-04T23:19:40.869Z,7.00
2018-12-04T23:22:08.371Z,7.10
2018-12-04T23:24:35.887Z,7.10
2018-12-04T23:27:03.379Z,7.20
2018-12-04T23:29:30.831Z,7.20
2018-12-04T23:31:58.351Z,7.20
2018-12-04T23:34:25.825Z,7.20
2018-12-04T23:36:53.314Z,7.10
2018-12-04T23:39:28.025Z,7.10
2018-12-04T23:41:55.554Z,7.10
2018-12-04T23:44:24.402Z,7.00
2018-12-04T23:46:51.885Z,7.10
2018-12-04T23:49:19.339Z,7.00
2018-12-04T23:51:46.839Z,7.00
2018-12-04T23:54:14.304Z,6.90
2018-12-04T23:56:41.811Z,6.90
2018-12-04T23:59:09.350Z,6.90
